sensor_id;sensor_type;location;lat;lon;timestamp;P1;durP1;ratioP1;P2;durP2;ratioP2
36383;SDS011;22418;51.210;6.976;2022-12-20T00:01:16;6.93;;;2.60;;
36383;SDS011;22418;51.210;6.976;2022-12-20T00:03:49;6.13;;;2.70;;
36383;SDS011;22418;51.210;6.976;2022-12-20T00:06:20;5.88;;;2.63;;
36383;SDS011;22418;51.210;6.976;2022-12-20T00:11:23;6.53;;;2.28;;
36383;SDS011;22418;51.210;6.976;2022-12-20T00:13:55;5.40;;;2.67;;
36383;SDS011;22418;51.210;6.976;2022-12-20T00:16:27;5.25;;;2.38;;
36383;SDS011;22418;51.210;6.976;2022-12-20T00:19:00;7.45;;;2.95;;
36383;SDS011;22418;51.210;6.976;2022-12-20T00:21:32;6.15;;;2.30;;
36383;SDS011;22418;51.210;6.976;2022-12-20T00:26:35;5.30;;;2.90;;
36383;SDS011;22418;51.210;6.976;2022-12-20T00:29:09;6.75;;;2.42;;
36383;SDS011;22418;51.210;6.976;2022-12-20T00:31:40;6.60;;;2.70;;
36383;SDS011;22418;51.210;6.976;2022-12-20T00:34:10;6.70;;;2.37;;
36383;SDS011;22418;51.210;6.976;2022-12-20T00:36:41;8.03;;;2.60;;
36383;SDS011;22418;51.210;6.976;2022-12-20T00:39:11;4.97;;;2.93;;
36383;SDS011;22418;51.210;6.976;2022-12-20T00:41:42;5.83;;;2.50;;
36383;SDS011;22418;51.210;6.976;2022-12-20T00:44:12;4.43;;;2.23;;
36383;SDS011;22418;51.210;6.976;2022-12-20T00:46:43;7.43;;;2.30;;
36383;SDS011;22418;51.210;6.976;2022-12-20T00:49:13;6.67;;;2.50;;
36383;SDS011;22418;51.210;6.976;2022-12-20T00:54:15;8.07;;;2.53;;
36383;SDS011;22418;51.210;6.976;2022-12-20T00:56:46;7.23;;;2.00;;
36383;SDS011;22418;51.210;6.976;2022-12-20T00:59:17;5.73;;;2.33;;
36383;SDS011;22418;51.210;6.976;2022-12-20T01:01:47;9.10;;;2.43;;
36383;SDS011;22418;51.210;6.976;2022-12-20T01:04:18;5.73;;;2.27;;
36383;SDS011;22418;51.210;6.976;2022-12-20T01:06:48;7.73;;;2.40;;
36383;SDS011;22418;51.210;6.976;2022-12-20T01:09:19;5.63;;;2.50;;
36383;SDS011;22418;51.210;6.976;2022-12-20T01:11:49;3.33;;;2.30;;
36383;SDS011;22418;51.210;6.976;2022-12-20T01:14:20;6.73;;;2.37;;
36383;SDS011;22418;51.210;6.976;2022-12-20T01:16:50;7.27;;;2.20;;
36383;SDS011;22418;51.210;6.976;2022-12-20T01:19:21;6.33;;;2.20;;
36383;SDS011;22418;51.210;6.976;2022-12-20T01:21:51;4.93;;;2.50;;
36383;SDS011;22418;51.210;6.976;2022-12-20T01:24:22;7.40;;;2.67;;
36383;SDS011;22418;51.210;6.976;2022-12-20T01:26:52;4.07;;;2.17;;
36383;SDS011;22418;51.210;6.976;2022-12-20T01:29:23;6.03;;;2.97;;
36383;SDS011;22418;51.210;6.976;2022-12-20T01:31:54;5.90;;;2.40;;
36383;SDS011;22418;51.210;6.976;2022-12-20T01:34:24;5.03;;;2.60;;
36383;SDS011;22418;51.210;6.976;2022-12-20T01:36:55;5.27;;;2.30;;
36383;SDS011;22418;51.210;6.976;2022-12-20T01:39:28;8.02;;;2.55;;
36383;SDS011;22418;51.210;6.976;2022-12-20T01:41:58;4.77;;;2.50;;
36383;SDS011;22418;51.210;6.976;2022-12-20T01:47:00;4.90;;;2.30;;
36383;SDS011;22418;51.210;6.976;2022-12-20T01:49:31;6.83;;;2.50;;
36383;SDS011;22418;51.210;6.976;2022-12-20T01:52:06;5.18;;;2.28;;
36383;SDS011;22418;51.210;6.976;2022-12-20T01:54:45;4.82;;;2.80;;
36383;SDS011;22418;51.210;6.976;2022-12-20T01:57:23;6.30;;;2.75;;
36383;SDS011;22418;51.210;6.976;2022-12-20T01:59:58;8.57;;;2.83;;
36383;SDS011;22418;51.210;6.976;2022-12-20T02:02:28;6.63;;;2.63;;
36383;SDS011;22418;51.210;6.976;2022-12-20T02:05:00;9.68;;;2.90;;
36383;SDS011;22418;51.210;6.976;2022-12-20T02:07:32;5.57;;;2.70;;
36383;SDS011;22418;51.210;6.976;2022-12-20T02:10:05;6.75;;;2.42;;
36383;SDS011;22418;51.210;6.976;2022-12-20T02:12:39;7.15;;;2.70;;
36383;SDS011;22418;51.210;6.976;2022-12-20T02:21:20;6.22;;;2.60;;
36383;SDS011;22418;51.210;6.976;2022-12-20T02:34:46;6.13;;;3.08;;
36383;SDS011;22418;51.210;6.976;2022-12-20T02:39:47;9.48;;;3.47;;
36383;SDS011;22418;51.210;6.976;2022-12-20T02:42:19;8.05;;;3.67;;
36383;SDS011;22418;51.210;6.976;2022-12-20T02:44:53;6.60;;;3.45;;
36383;SDS011;22418;51.210;6.976;2022-12-20T02:53:07;7.85;;;3.08;;
36383;SDS011;22418;51.210;6.976;2022-12-20T03:01:23;8.32;;;3.50;;
36383;SDS011;22418;51.210;6.976;2022-12-20T03:04:03;5.72;;;2.95;;
36383;SDS011;22418;51.210;6.976;2022-12-20T03:06:35;5.68;;;3.20;;
36383;SDS011;22418;51.210;6.976;2022-12-20T03:09:06;6.80;;;3.40;;
36383;SDS011;22418;51.210;6.976;2022-12-20T03:11:37;11.20;;;3.70;;
36383;SDS011;22418;51.210;6.976;2022-12-20T03:14:07;9.83;;;3.03;;
36383;SDS011;22418;51.210;6.976;2022-12-20T03:16:38;6.00;;;2.97;;
36383;SDS011;22418;51.210;6.976;2022-12-20T03:19:08;10.20;;;3.30;;
36383;SDS011;22418;51.210;6.976;2022-12-20T03:21:39;6.10;;;3.13;;
36383;SDS011;22418;51.210;6.976;2022-12-20T03:24:09;5.53;;;3.00;;
36383;SDS011;22418;51.210;6.976;2022-12-20T03:26:42;7.18;;;3.15;;
36383;SDS011;22418;51.210;6.976;2022-12-20T03:29:13;6.30;;;3.20;;
36383;SDS011;22418;51.210;6.976;2022-12-20T03:31:43;5.50;;;3.17;;
36383;SDS011;22418;51.210;6.976;2022-12-20T03:34:14;8.17;;;3.40;;
36383;SDS011;22418;51.210;6.976;2022-12-20T03:36:44;8.10;;;3.40;;
36383;SDS011;22418;51.210;6.976;2022-12-20T03:39:15;6.17;;;3.40;;
36383;SDS011;22418;51.210;6.976;2022-12-20T03:41:46;6.83;;;3.30;;
36383;SDS011;22418;51.210;6.976;2022-12-20T03:44:16;10.67;;;3.33;;
36383;SDS011;22418;51.210;6.976;2022-12-20T03:46:47;10.73;;;3.70;;
36383;SDS011;22418;51.210;6.976;2022-12-20T03:49:17;7.00;;;3.23;;
36383;SDS011;22418;51.210;6.976;2022-12-20T03:51:48;5.07;;;3.03;;
36383;SDS011;22418;51.210;6.976;2022-12-20T03:54:18;6.13;;;2.90;;
36383;SDS011;22418;51.210;6.976;2022-12-20T03:56:49;6.23;;;3.07;;
36383;SDS011;22418;51.210;6.976;2022-12-20T03:59:20;8.60;;;3.30;;
36383;SDS011;22418;51.210;6.976;2022-12-20T04:01:50;6.00;;;2.97;;
36383;SDS011;22418;51.210;6.976;2022-12-20T04:04:21;8.90;;;3.70;;
36383;SDS011;22418;51.210;6.976;2022-12-20T04:06:51;8.17;;;3.70;;
36383;SDS011;22418;51.210;6.976;2022-12-20T04:09:22;5.93;;;3.47;;
36383;SDS011;22418;51.210;6.976;2022-12-20T04:11:52;7.97;;;3.87;;
36383;SDS011;22418;51.210;6.976;2022-12-20T04:14:23;12.63;;;4.43;;
36383;SDS011;22418;51.210;6.976;2022-12-20T04:16:54;8.03;;;4.53;;
36383;SDS011;22418;51.210;6.976;2022-12-20T04:19:24;11.37;;;4.30;;
36383;SDS011;22418;51.210;6.976;2022-12-20T04:21:55;11.83;;;4.07;;
36383;SDS011;22418;51.210;6.976;2022-12-20T04:24:27;6.93;;;3.50;;
36383;SDS011;22418;51.210;6.976;2022-12-20T04:26:58;11.13;;;4.00;;
36383;SDS011;22418;51.210;6.976;2022-12-20T04:29:28;8.67;;;3.70;;
36383;SDS011;22418;51.210;6.976;2022-12-20T04:34:30;10.67;;;4.17;;
36383;SDS011;22418;51.210;6.976;2022-12-20T04:37:01;8.57;;;3.87;;
36383;SDS011;22418;51.210;6.976;2022-12-20T04:39:32;12.03;;;4.07;;
36383;SDS011;22418;51.210;6.976;2022-12-20T04:42:02;11.63;;;3.83;;
36383;SDS011;22418;51.210;6.976;2022-12-20T04:44:33;8.90;;;4.63;;
36383;SDS011;22418;51.210;6.976;2022-12-20T04:47:03;7.40;;;4.03;;
36383;SDS011;22418;51.210;6.976;2022-12-20T04:49:34;9.83;;;3.93;;
36383;SDS011;22418;51.210;6.976;2022-12-20T04:52:05;10.38;;;4.32;;
36383;SDS011;22418;51.210;6.976;2022-12-20T04:54:56;5.80;;;3.40;;
36383;SDS011;22418;51.210;6.976;2022-12-20T04:57:26;9.03;;;4.33;;
36383;SDS011;22418;51.210;6.976;2022-12-20T04:59:57;11.80;;;3.53;;
36383;SDS011;22418;51.210;6.976;2022-12-20T05:02:28;7.23;;;3.80;;
36383;SDS011;22418;51.210;6.976;2022-12-20T05:04:58;11.17;;;3.47;;
36383;SDS011;22418;51.210;6.976;2022-12-20T05:07:29;10.50;;;4.20;;
36383;SDS011;22418;51.210;6.976;2022-12-20T05:09:59;12.20;;;3.63;;
36383;SDS011;22418;51.210;6.976;2022-12-20T05:12:30;11.13;;;3.43;;
36383;SDS011;22418;51.210;6.976;2022-12-20T05:15:00;11.30;;;3.93;;
36383;SDS011;22418;51.210;6.976;2022-12-20T05:17:31;10.13;;;3.47;;
36383;SDS011;22418;51.210;6.976;2022-12-20T05:20:03;12.88;;;4.32;;
36383;SDS011;22418;51.210;6.976;2022-12-20T05:22:35;12.07;;;3.72;;
36383;SDS011;22418;51.210;6.976;2022-12-20T05:25:24;6.82;;;3.30;;
36383;SDS011;22418;51.210;6.976;2022-12-20T05:28:13;8.73;;;3.75;;
36383;SDS011;22418;51.210;6.976;2022-12-20T05:30:43;10.43;;;3.57;;
36383;SDS011;22418;51.210;6.976;2022-12-20T05:33:14;5.27;;;2.97;;
36383;SDS011;22418;51.210;6.976;2022-12-20T05:35:44;7.07;;;3.50;;
36383;SDS011;22418;51.210;6.976;2022-12-20T05:38:15;8.60;;;3.90;;
36383;SDS011;22418;51.210;6.976;2022-12-20T05:40:46;15.97;;;3.83;;
36383;SDS011;22418;51.210;6.976;2022-12-20T05:43:18;13.13;;;4.15;;
36383;SDS011;22418;51.210;6.976;2022-12-20T05:45:50;11.27;;;3.88;;
36383;SDS011;22418;51.210;6.976;2022-12-20T05:48:22;9.15;;;3.40;;
36383;SDS011;22418;51.210;6.976;2022-12-20T05:50:52;9.37;;;3.73;;
36383;SDS011;22418;51.210;6.976;2022-12-20T05:53:23;9.23;;;3.60;;
36383;SDS011;22418;51.210;6.976;2022-12-20T05:55:55;7.10;;;3.15;;
36383;SDS011;22418;51.210;6.976;2022-12-20T05:58:26;7.23;;;3.17;;
36383;SDS011;22418;51.210;6.976;2022-12-20T06:01:04;13.80;;;4.28;;
36383;SDS011;22418;51.210;6.976;2022-12-20T06:03:36;9.93;;;3.95;;
36383;SDS011;22418;51.210;6.976;2022-12-20T06:06:08;10.30;;;3.58;;
36383;SDS011;22418;51.210;6.976;2022-12-20T06:08:38;9.00;;;3.73;;
36383;SDS011;22418;51.210;6.976;2022-12-20T06:11:09;7.60;;;3.30;;
36383;SDS011;22418;51.210;6.976;2022-12-20T06:13:39;8.93;;;3.23;;
36383;SDS011;22418;51.210;6.976;2022-12-20T06:16:10;8.90;;;4.10;;
36383;SDS011;22418;51.210;6.976;2022-12-20T06:18:41;6.60;;;3.67;;
36383;SDS011;22418;51.210;6.976;2022-12-20T06:21:11;10.23;;;3.53;;
36383;SDS011;22418;51.210;6.976;2022-12-20T06:23:42;7.53;;;3.50;;
36383;SDS011;22418;51.210;6.976;2022-12-20T06:26:13;8.85;;;3.50;;
36383;SDS011;22418;51.210;6.976;2022-12-20T06:28:44;7.50;;;3.30;;
36383;SDS011;22418;51.210;6.976;2022-12-20T06:31:15;7.13;;;3.60;;
36383;SDS011;22418;51.210;6.976;2022-12-20T06:33:45;13.13;;;3.67;;
36383;SDS011;22418;51.210;6.976;2022-12-20T06:36:16;10.70;;;3.60;;
36383;SDS011;22418;51.210;6.976;2022-12-20T06:38:46;8.20;;;3.70;;
36383;SDS011;22418;51.210;6.976;2022-12-20T06:41:17;8.90;;;3.60;;
36383;SDS011;22418;51.210;6.976;2022-12-20T06:43:48;13.53;;;4.13;;
36383;SDS011;22418;51.210;6.976;2022-12-20T06:46:18;10.23;;;3.50;;
36383;SDS011;22418;51.210;6.976;2022-12-20T06:48:49;7.20;;;3.17;;
36383;SDS011;22418;51.210;6.976;2022-12-20T06:51:19;9.90;;;3.60;;
36383;SDS011;22418;51.210;6.976;2022-12-20T06:53:50;8.73;;;3.80;;
36383;SDS011;22418;51.210;6.976;2022-12-20T06:56:21;7.68;;;3.47;;
36383;SDS011;22418;51.210;6.976;2022-12-20T06:58:51;10.23;;;3.50;;
36383;SDS011;22418;51.210;6.976;2022-12-20T07:01:22;8.27;;;3.53;;
36383;SDS011;22418;51.210;6.976;2022-12-20T07:03:52;8.80;;;3.97;;
36383;SDS011;22418;51.210;6.976;2022-12-20T07:06:23;8.57;;;3.77;;
36383;SDS011;22418;51.210;6.976;2022-12-20T07:08:54;12.53;;;4.03;;
36383;SDS011;22418;51.210;6.976;2022-12-20T07:11:24;6.55;;;3.35;;
36383;SDS011;22418;51.210;6.976;2022-12-20T07:13:55;9.30;;;3.40;;
36383;SDS011;22418;51.210;6.976;2022-12-20T07:16:26;7.82;;;3.50;;
36383;SDS011;22418;51.210;6.976;2022-12-20T07:18:57;8.10;;;3.60;;
36383;SDS011;22418;51.210;6.976;2022-12-20T07:21:28;6.90;;;3.00;;
36383;SDS011;22418;51.210;6.976;2022-12-20T07:23:58;10.47;;;3.57;;
36383;SDS011;22418;51.210;6.976;2022-12-20T07:26:29;7.27;;;3.50;;
36383;SDS011;22418;51.210;6.976;2022-12-20T07:28:59;8.83;;;3.60;;
36383;SDS011;22418;51.210;6.976;2022-12-20T07:31:30;8.38;;;3.60;;
36383;SDS011;22418;51.210;6.976;2022-12-20T07:34:01;9.50;;;4.00;;
36383;SDS011;22418;51.210;6.976;2022-12-20T07:36:31;28.23;;;4.23;;
36383;SDS011;22418;51.210;6.976;2022-12-20T07:39:02;8.87;;;4.20;;
36383;SDS011;22418;51.210;6.976;2022-12-20T07:41:33;14.57;;;4.10;;
36383;SDS011;22418;51.210;6.976;2022-12-20T07:44:04;10.10;;;3.40;;
36383;SDS011;22418;51.210;6.976;2022-12-20T07:46:35;7.72;;;3.63;;
36383;SDS011;22418;51.210;6.976;2022-12-20T07:49:05;7.23;;;3.27;;
36383;SDS011;22418;51.210;6.976;2022-12-20T07:51:37;6.20;;;3.10;;
36383;SDS011;22418;51.210;6.976;2022-12-20T07:54:13;8.32;;;3.35;;
36383;SDS011;22418;51.210;6.976;2022-12-20T07:56:49;7.43;;;3.08;;
36383;SDS011;22418;51.210;6.976;2022-12-20T07:59:23;6.45;;;3.38;;
36383;SDS011;22418;51.210;6.976;2022-12-20T08:01:58;10.38;;;3.80;;
36383;SDS011;22418;51.210;6.976;2022-12-20T08:04:29;9.25;;;3.67;;
36383;SDS011;22418;51.210;6.976;2022-12-20T08:07:01;6.72;;;3.22;;
36383;SDS011;22418;51.210;6.976;2022-12-20T08:09:33;10.20;;;3.05;;
36383;SDS011;22418;51.210;6.976;2022-12-20T08:12:09;10.00;;;3.97;;
36383;SDS011;22418;51.210;6.976;2022-12-20T08:14:43;11.40;;;3.80;;
36383;SDS011;22418;51.210;6.976;2022-12-20T08:17:14;8.65;;;3.95;;
36383;SDS011;22418;51.210;6.976;2022-12-20T08:19:44;10.13;;;3.70;;
36383;SDS011;22418;51.210;6.976;2022-12-20T08:22:15;7.23;;;3.20;;
36383;SDS011;22418;51.210;6.976;2022-12-20T08:24:45;9.63;;;3.20;;
36383;SDS011;22418;51.210;6.976;2022-12-20T08:27:16;6.53;;;2.57;;
36383;SDS011;22418;51.210;6.976;2022-12-20T08:29:47;6.57;;;3.20;;
36383;SDS011;22418;51.210;6.976;2022-12-20T08:32:18;7.75;;;3.25;;
36383;SDS011;22418;51.210;6.976;2022-12-20T08:34:49;10.23;;;4.40;;
36383;SDS011;22418;51.210;6.976;2022-12-20T08:39:51;11.82;;;3.03;;
36383;SDS011;22418;51.210;6.976;2022-12-20T08:42:21;7.83;;;3.00;;
36383;SDS011;22418;51.210;6.976;2022-12-20T08:44:52;6.53;;;3.37;;
36383;SDS011;22418;51.210;6.976;2022-12-20T08:47:23;6.43;;;3.10;;
36383;SDS011;22418;51.210;6.976;2022-12-20T08:49:53;6.03;;;2.77;;
36383;SDS011;22418;51.210;6.976;2022-12-20T08:52:24;10.83;;;2.87;;
36383;SDS011;22418;51.210;6.976;2022-12-20T08:54:54;10.43;;;4.27;;
36383;SDS011;22418;51.210;6.976;2022-12-20T08:57:25;8.83;;;4.07;;
36383;SDS011;22418;51.210;6.976;2022-12-20T08:59:55;9.40;;;4.60;;
36383;SDS011;22418;51.210;6.976;2022-12-20T09:02:26;8.47;;;3.70;;
36383;SDS011;22418;51.210;6.976;2022-12-20T09:04:56;7.87;;;3.60;;
36383;SDS011;22418;51.210;6.976;2022-12-20T09:07:27;8.60;;;3.03;;
36383;SDS011;22418;51.210;6.976;2022-12-20T09:09:58;8.98;;;3.83;;
36383;SDS011;22418;51.210;6.976;2022-12-20T09:12:28;12.33;;;3.10;;
36383;SDS011;22418;51.210;6.976;2022-12-20T09:14:59;11.43;;;3.67;;
36383;SDS011;22418;51.210;6.976;2022-12-20T09:17:29;8.63;;;2.90;;
36383;SDS011;22418;51.210;6.976;2022-12-20T09:20:00;12.40;;;3.40;;
36383;SDS011;22418;51.210;6.976;2022-12-20T09:22:30;14.10;;;3.73;;
36383;SDS011;22418;51.210;6.976;2022-12-20T09:25:01;7.77;;;3.07;;
36383;SDS011;22418;51.210;6.976;2022-12-20T09:27:32;5.93;;;2.80;;
36383;SDS011;22418;51.210;6.976;2022-12-20T09:30:03;4.93;;;2.60;;
36383;SDS011;22418;51.210;6.976;2022-12-20T09:32:34;5.95;;;2.85;;
36383;SDS011;22418;51.210;6.976;2022-12-20T09:35:04;8.00;;;4.00;;
36383;SDS011;22418;51.210;6.976;2022-12-20T09:37:35;9.05;;;3.38;;
36383;SDS011;22418;51.210;6.976;2022-12-20T09:40:06;5.93;;;3.40;;
36383;SDS011;22418;51.210;6.976;2022-12-20T09:42:40;8.70;;;3.70;;
36383;SDS011;22418;51.210;6.976;2022-12-20T09:45:12;12.37;;;4.00;;
36383;SDS011;22418;51.210;6.976;2022-12-20T09:47:51;8.45;;;3.47;;
36383;SDS011;22418;51.210;6.976;2022-12-20T09:50:38;9.88;;;3.28;;
36383;SDS011;22418;51.210;6.976;2022-12-20T09:59:34;7.18;;;2.95;;
36383;SDS011;22418;51.210;6.976;2022-12-20T10:02:08;6.63;;;3.10;;
36383;SDS011;22418;51.210;6.976;2022-12-20T10:04:41;6.60;;;2.97;;
36383;SDS011;22418;51.210;6.976;2022-12-20T10:07:17;7.37;;;2.90;;
36383;SDS011;22418;51.210;6.976;2022-12-20T10:15:53;7.18;;;2.80;;
36383;SDS011;22418;51.210;6.976;2022-12-20T10:24:17;10.10;;;2.78;;
36383;SDS011;22418;51.210;6.976;2022-12-20T10:26:50;9.15;;;2.35;;
36383;SDS011;22418;51.210;6.976;2022-12-20T10:29:21;10.98;;;3.80;;
36383;SDS011;22418;51.210;6.976;2022-12-20T10:31:52;7.17;;;2.57;;
36383;SDS011;22418;51.210;6.976;2022-12-20T10:34:28;9.40;;;2.65;;
36383;SDS011;22418;51.210;6.976;2022-12-20T10:37:14;6.27;;;2.87;;
36383;SDS011;22418;51.210;6.976;2022-12-20T10:39:47;5.60;;;2.67;;
36383;SDS011;22418;51.210;6.976;2022-12-20T10:42:34;7.82;;;2.63;;
36383;SDS011;22418;51.210;6.976;2022-12-20T10:47:46;5.38;;;2.30;;
36383;SDS011;22418;51.210;6.976;2022-12-20T10:50:21;6.15;;;2.38;;
36383;SDS011;22418;51.210;6.976;2022-12-20T10:53:11;7.55;;;2.35;;
36383;SDS011;22418;51.210;6.976;2022-12-20T10:56:11;5.97;;;2.30;;
36383;SDS011;22418;51.210;6.976;2022-12-20T10:58:51;8.23;;;2.50;;
36383;SDS011;22418;51.210;6.976;2022-12-20T11:01:42;4.30;;;2.30;;
36383;SDS011;22418;51.210;6.976;2022-12-20T11:04:26;9.15;;;2.75;;
36383;SDS011;22418;51.210;6.976;2022-12-20T11:07:02;7.88;;;2.78;;
36383;SDS011;22418;51.210;6.976;2022-12-20T11:09:52;8.98;;;2.45;;
36383;SDS011;22418;51.210;6.976;2022-12-20T11:12:24;4.15;;;2.13;;
36383;SDS011;22418;51.210;6.976;2022-12-20T11:15:18;5.43;;;2.03;;
36383;SDS011;22418;51.210;6.976;2022-12-20T11:17:57;12.18;;;4.57;;
36383;SDS011;22418;51.210;6.976;2022-12-20T11:26:29;4.45;;;2.15;;
36383;SDS011;22418;51.210;6.976;2022-12-20T11:35:41;6.60;;;2.53;;
36383;SDS011;22418;51.210;6.976;2022-12-20T11:38:36;8.38;;;3.20;;
36383;SDS011;22418;51.210;6.976;2022-12-20T11:41:20;11.80;;;2.90;;
36383;SDS011;22418;51.210;6.976;2022-12-20T11:44:14;5.13;;;2.42;;
36383;SDS011;22418;51.210;6.976;2022-12-20T11:53:37;4.88;;;2.10;;
36383;SDS011;22418;51.210;6.976;2022-12-20T11:56:32;4.47;;;1.80;;
36383;SDS011;22418;51.210;6.976;2022-12-20T11:59:09;7.20;;;2.65;;
36383;SDS011;22418;51.210;6.976;2022-12-20T12:04:35;6.57;;;2.13;;
36383;SDS011;22418;51.210;6.976;2022-12-20T12:07:12;6.20;;;2.58;;
36383;SDS011;22418;51.210;6.976;2022-12-20T12:12:30;7.65;;;2.22;;
36383;SDS011;22418;51.210;6.976;2022-12-20T12:23:23;6.00;;;2.25;;
36383;SDS011;22418;51.210;6.976;2022-12-20T12:26:00;4.18;;;2.17;;
36383;SDS011;22418;51.210;6.976;2022-12-20T12:28:34;7.38;;;2.30;;
36383;SDS011;22418;51.210;6.976;2022-12-20T12:31:07;7.70;;;2.50;;
36383;SDS011;22418;51.210;6.976;2022-12-20T12:33:47;4.78;;;2.70;;
36383;SDS011;22418;51.210;6.976;2022-12-20T12:45:25;3.72;;;1.95;;
36383;SDS011;22418;51.210;6.976;2022-12-20T12:48:04;6.70;;;2.22;;
36383;SDS011;22418;51.210;6.976;2022-12-20T12:50:47;4.70;;;2.40;;
36383;SDS011;22418;51.210;6.976;2022-12-20T13:01:52;6.30;;;2.65;;
36383;SDS011;22418;51.210;6.976;2022-12-20T13:07:41;6.50;;;2.50;;
36383;SDS011;22418;51.210;6.976;2022-12-20T13:12:55;9.52;;;2.80;;
36383;SDS011;22418;51.210;6.976;2022-12-20T13:17:59;8.85;;;2.85;;
36383;SDS011;22418;51.210;6.976;2022-12-20T13:21:15;10.35;;;3.25;;
36383;SDS011;22418;51.210;6.976;2022-12-20T13:27:15;12.32;;;3.92;;
36383;SDS011;22418;51.210;6.976;2022-12-20T13:38:09;13.45;;;4.95;;
36383;SDS011;22418;51.210;6.976;2022-12-20T13:49:21;10.23;;;3.50;;
36383;SDS011;22418;51.210;6.976;2022-12-20T13:52:10;10.55;;;3.92;;
36383;SDS011;22418;51.210;6.976;2022-12-20T13:54:46;9.70;;;3.53;;
36383;SDS011;22418;51.210;6.976;2022-12-20T13:57:27;16.25;;;3.70;;
36383;SDS011;22418;51.210;6.976;2022-12-20T14:00:02;7.20;;;3.45;;
36383;SDS011;22418;51.210;6.976;2022-12-20T14:02:35;9.50;;;3.58;;
36383;SDS011;22418;51.210;6.976;2022-12-20T14:05:14;11.93;;;3.78;;
36383;SDS011;22418;51.210;6.976;2022-12-20T14:07:58;11.57;;;4.45;;
36383;SDS011;22418;51.210;6.976;2022-12-20T14:10:46;10.98;;;4.35;;
36383;SDS011;22418;51.210;6.976;2022-12-20T14:13:21;11.02;;;4.43;;
36383;SDS011;22418;51.210;6.976;2022-12-20T14:15:53;12.13;;;4.45;;
36383;SDS011;22418;51.210;6.976;2022-12-20T14:20:59;9.50;;;3.60;;
36383;SDS011;22418;51.210;6.976;2022-12-20T14:23:38;13.40;;;3.42;;
36383;SDS011;22418;51.210;6.976;2022-12-20T14:26:12;13.18;;;3.67;;
36383;SDS011;22418;51.210;6.976;2022-12-20T14:28:46;10.35;;;3.42;;
36383;SDS011;22418;51.210;6.976;2022-12-20T14:34:04;10.25;;;3.17;;
36383;SDS011;22418;51.210;6.976;2022-12-20T14:36:46;9.43;;;3.60;;
36383;SDS011;22418;51.210;6.976;2022-12-20T14:39:20;12.65;;;4.57;;
36383;SDS011;22418;51.210;6.976;2022-12-20T14:41:58;14.00;;;4.38;;
36383;SDS011;22418;51.210;6.976;2022-12-20T14:44:41;9.25;;;3.85;;
36383;SDS011;22418;51.210;6.976;2022-12-20T14:49:48;8.32;;;3.20;;
36383;SDS011;22418;51.210;6.976;2022-12-20T14:52:36;13.23;;;3.50;;
36383;SDS011;22418;51.210;6.976;2022-12-20T14:55:12;14.98;;;3.22;;
36383;SDS011;22418;51.210;6.976;2022-12-20T14:57:50;12.68;;;3.10;;
36383;SDS011;22418;51.210;6.976;2022-12-20T15:00:26;11.45;;;4.05;;
36383;SDS011;22418;51.210;6.976;2022-12-20T15:03:00;9.57;;;3.85;;
36383;SDS011;22418;51.210;6.976;2022-12-20T15:05:42;12.70;;;3.03;;
36383;SDS011;22418;51.210;6.976;2022-12-20T15:13:34;7.88;;;3.15;;
36383;SDS011;22418;51.210;6.976;2022-12-20T15:18:54;9.80;;;3.40;;
36383;SDS011;22418;51.210;6.976;2022-12-20T15:24:05;10.45;;;3.38;;
36383;SDS011;22418;51.210;6.976;2022-12-20T15:26:40;8.65;;;3.53;;
36383;SDS011;22418;51.210;6.976;2022-12-20T15:32:02;8.32;;;3.60;;
36383;SDS011;22418;51.210;6.976;2022-12-20T15:34:36;8.40;;;3.13;;
36383;SDS011;22418;51.210;6.976;2022-12-20T15:37:13;6.95;;;3.03;;
36383;SDS011;22418;51.210;6.976;2022-12-20T15:39:45;11.02;;;3.53;;
36383;SDS011;22418;51.210;6.976;2022-12-20T15:42:16;10.53;;;3.40;;
36383;SDS011;22418;51.210;6.976;2022-12-20T15:44:49;10.98;;;2.90;;
36383;SDS011;22418;51.210;6.976;2022-12-20T15:47:19;8.15;;;2.97;;
36383;SDS011;22418;51.210;6.976;2022-12-20T15:49:50;13.60;;;3.97;;
36383;SDS011;22418;51.210;6.976;2022-12-20T15:52:21;12.43;;;3.10;;
36383;SDS011;22418;51.210;6.976;2022-12-20T15:54:53;6.45;;;2.90;;
36383;SDS011;22418;51.210;6.976;2022-12-20T15:57:23;8.60;;;3.17;;
36383;SDS011;22418;51.210;6.976;2022-12-20T15:59:54;12.57;;;3.80;;
36383;SDS011;22418;51.210;6.976;2022-12-20T16:02:26;9.07;;;3.60;;
36383;SDS011;22418;51.210;6.976;2022-12-20T16:04:58;8.35;;;3.40;;
36383;SDS011;22418;51.210;6.976;2022-12-20T16:07:28;9.85;;;3.40;;
36383;SDS011;22418;51.210;6.976;2022-12-20T16:09:59;10.13;;;4.63;;
36383;SDS011;22418;51.210;6.976;2022-12-20T16:12:33;13.20;;;4.70;;
36383;SDS011;22418;51.210;6.976;2022-12-20T16:15:05;9.77;;;3.88;;
36383;SDS011;22418;51.210;6.976;2022-12-20T16:17:46;10.82;;;3.70;;
36383;SDS011;22418;51.210;6.976;2022-12-20T16:20:19;8.73;;;3.83;;
36383;SDS011;22418;51.210;6.976;2022-12-20T16:22:50;11.52;;;3.25;;
36383;SDS011;22418;51.210;6.976;2022-12-20T16:25:25;11.13;;;3.60;;
36383;SDS011;22418;51.210;6.976;2022-12-20T16:27:58;6.68;;;3.08;;
36383;SDS011;22418;51.210;6.976;2022-12-20T16:30:28;7.97;;;3.40;;
36383;SDS011;22418;51.210;6.976;2022-12-20T16:32:59;7.53;;;3.45;;
36383;SDS011;22418;51.210;6.976;2022-12-20T16:35:31;21.97;;;4.60;;
36383;SDS011;22418;51.210;6.976;2022-12-20T16:38:02;9.65;;;4.00;;
36383;SDS011;22418;51.210;6.976;2022-12-20T16:40:33;14.10;;;5.10;;
36383;SDS011;22418;51.210;6.976;2022-12-20T16:43:04;14.33;;;6.17;;
36383;SDS011;22418;51.210;6.976;2022-12-20T16:45:34;11.17;;;4.50;;
36383;SDS011;22418;51.210;6.976;2022-12-20T16:48:05;9.13;;;3.87;;
36383;SDS011;22418;51.210;6.976;2022-12-20T16:53:14;8.48;;;3.28;;
36383;SDS011;22418;51.210;6.976;2022-12-20T16:55:45;7.88;;;3.40;;
36383;SDS011;22418;51.210;6.976;2022-12-20T16:58:16;9.30;;;3.43;;
36383;SDS011;22418;51.210;6.976;2022-12-20T17:00:46;10.53;;;3.83;;
36383;SDS011;22418;51.210;6.976;2022-12-20T17:03:19;9.20;;;3.73;;
36383;SDS011;22418;51.210;6.976;2022-12-20T17:05:50;13.32;;;4.80;;
36383;SDS011;22418;51.210;6.976;2022-12-20T17:08:20;11.33;;;4.67;;
36383;SDS011;22418;51.210;6.976;2022-12-20T17:10:51;11.70;;;4.60;;
36383;SDS011;22418;51.210;6.976;2022-12-20T17:13:21;10.10;;;3.57;;
36383;SDS011;22418;51.210;6.976;2022-12-20T17:15:52;10.40;;;3.70;;
36383;SDS011;22418;51.210;6.976;2022-12-20T17:18:22;10.63;;;3.87;;
36383;SDS011;22418;51.210;6.976;2022-12-20T17:20:53;12.50;;;4.63;;
36383;SDS011;22418;51.210;6.976;2022-12-20T17:23:23;9.23;;;4.17;;
36383;SDS011;22418;51.210;6.976;2022-12-20T17:25:54;19.97;;;4.47;;
36383;SDS011;22418;51.210;6.976;2022-12-20T17:28:24;9.17;;;3.67;;
36383;SDS011;22418;51.210;6.976;2022-12-20T17:30:55;8.50;;;3.42;;
36383;SDS011;22418;51.210;6.976;2022-12-20T17:35:57;13.87;;;3.87;;
36383;SDS011;22418;51.210;6.976;2022-12-20T17:38:28;11.17;;;4.13;;
36383;SDS011;22418;51.210;6.976;2022-12-20T17:40:59;7.10;;;3.40;;
36383;SDS011;22418;51.210;6.976;2022-12-20T17:43:29;7.50;;;4.00;;
36383;SDS011;22418;51.210;6.976;2022-12-20T17:46:00;8.07;;;3.77;;
36383;SDS011;22418;51.210;6.976;2022-12-20T17:48:30;10.17;;;4.33;;
36383;SDS011;22418;51.210;6.976;2022-12-20T17:51:01;10.73;;;3.87;;
36383;SDS011;22418;51.210;6.976;2022-12-20T17:53:31;12.33;;;4.23;;
36383;SDS011;22418;51.210;6.976;2022-12-20T17:56:02;9.73;;;3.63;;
36383;SDS011;22418;51.210;6.976;2022-12-20T17:58:33;11.63;;;3.77;;
36383;SDS011;22418;51.210;6.976;2022-12-20T18:01:03;8.70;;;3.70;;
36383;SDS011;22418;51.210;6.976;2022-12-20T18:03:34;13.10;;;4.33;;
36383;SDS011;22418;51.210;6.976;2022-12-20T18:06:05;10.27;;;4.10;;
36383;SDS011;22418;51.210;6.976;2022-12-20T18:08:36;10.77;;;3.38;;
36383;SDS011;22418;51.210;6.976;2022-12-20T18:11:07;9.23;;;3.77;;